createdAt,value
2019-04-11T00:00:55.467Z,16.40
2019-04-11T00:03:25.025Z,18.20
2019-04-11T00:05:53.603Z,26.87
2019-04-11T00:08:22.014Z,23.20
2019-04-11T00:10:50.464Z,17.20
2019-04-11T00:13:25.190Z,17.47
2019-04-11T00:15:50.868Z,24.77
2019-04-11T00:18:20.699Z,23.00
2019-04-11T00:20:50.526Z,28.27
2019-04-11T00:23:19.075Z,16.87
2019-04-11T00:25:47.530Z,20.93
2019-04-11T00:28:17.314Z,22.10
2019-04-11T00:30:48.425Z,19.87
2019-04-11T00:33:18.125Z,20.27
2019-04-11T00:35:46.641Z,36.43
2019-04-11T00:38:18.035Z,31.13
2019-04-11T00:40:49.128Z,25.67
2019-04-11T00:43:28.522Z,21.10
2019-04-11T00:45:53.984Z,27.00
2019-04-11T00:48:23.783Z,25.17
2019-04-11T00:50:52.355Z,21.17
2019-04-11T00:53:20.904Z,24.80
2019-04-11T00:55:49.341Z,15.27
2019-04-11T00:58:17.797Z,26.03
2019-04-11T01:00:47.128Z,26.63
2019-04-11T01:03:15.875Z,26.07
2019-04-11T01:05:44.292Z,29.43
2019-04-11T01:08:13.672Z,22.23
2019-04-11T01:10:43.490Z,28.37
2019-04-11T01:13:14.097Z,23.53
2019-04-11T01:15:44.887Z,25.37
2019-04-11T01:18:13.983Z,21.00
2019-04-11T01:20:42.466Z,25.03
2019-04-11T01:23:16.568Z,21.50
2019-04-11T01:25:44.988Z,19.63
2019-04-11T01:28:14.298Z,19.47
2019-04-11T01:30:47.479Z,26.73
2019-04-11T01:33:15.880Z,20.33
2019-04-11T01:35:44.295Z,26.20
2019-04-11T01:38:16.828Z,17.50
2019-04-11T01:40:45.646Z,24.17
2019-04-11T01:43:15.582Z,22.63
2019-04-11T01:45:45.345Z,23.73
2019-04-11T01:48:15.859Z,21.50
2019-04-11T01:50:45.265Z,26.30
2019-04-11T01:53:15.050Z,21.57
2019-04-11T01:55:43.664Z,19.20
2019-04-11T01:58:12.098Z,13.63
2019-04-11T02:00:54.730Z,18.20
2019-04-11T02:03:25.433Z,32.93
2019-04-11T02:05:54.009Z,21.77
2019-04-11T02:08:23.046Z,15.13
2019-04-11T02:10:52.849Z,21.57
2019-04-11T02:13:21.725Z,22.40
2019-04-11T02:15:50.396Z,19.03
2019-04-11T02:18:19.348Z,19.63
2019-04-11T02:20:47.968Z,16.83
2019-04-11T02:23:23.774Z,27.60
2019-04-11T02:26:03.641Z,22.90
2019-04-11T02:28:32.862Z,17.80
2019-04-11T02:31:02.758Z,16.17
2019-04-11T02:33:35.004Z,22.60
2019-04-11T02:36:05.067Z,17.43
2019-04-11T02:38:34.767Z,28.90
2019-04-11T02:41:05.927Z,16.30
2019-04-11T02:43:36.081Z,17.53
2019-04-11T02:46:12.978Z,16.13
2019-04-11T02:48:35.579Z,17.00
2019-04-11T02:51:07.270Z,16.13
2019-04-11T02:53:36.788Z,14.03
2019-04-11T02:56:06.312Z,19.30
2019-04-11T02:58:36.893Z,23.63
2019-04-11T03:01:07.986Z,15.30
2019-04-11T03:03:37.382Z,20.03
2019-04-11T03:06:07.154Z,22.47
2019-04-11T03:08:37.153Z,12.30
2019-04-11T03:11:07.681Z,14.40
2019-04-11T03:13:38.353Z,18.73
2019-04-11T03:16:23.694Z,23.23
2019-04-11T03:18:54.961Z,25.43
2019-04-11T03:21:13.651Z,17.27
2019-04-11T03:23:39.757Z,19.37
2019-04-11T03:26:10.301Z,11.43
2019-04-11T03:28:42.488Z,13.13
2019-04-11T03:31:42.478Z,15.07
2019-04-11T03:34:25.059Z,16.20
2019-04-11T03:37:06.818Z,11.10
2019-04-11T03:39:05.715Z,20.17
2019-04-11T03:41:30.996Z,14.90
2019-04-11T03:43:54.129Z,15.87
2019-04-11T03:46:32.659Z,17.40
2019-04-11T03:48:55.705Z,16.80
2019-04-11T03:51:18.292Z,15.63
2019-04-11T03:53:47.259Z,24.07
2019-04-11T03:56:19.799Z,15.27
2019-04-11T03:58:48.235Z,16.23
2019-04-11T04:01:18.408Z,17.43
2019-04-11T04:03:48.868Z,14.00
2019-04-11T04:06:19.098Z,14.20
2019-04-11T04:08:48.710Z,15.93
2019-04-11T04:11:22.185Z,11.03
2019-04-11T04:13:56.160Z,18.43
2019-04-11T04:16:40.155Z,19.33
2019-04-11T04:19:10.850Z,12.40
2019-04-11T04:21:38.883Z,8.53
2019-04-11T04:24:30.020Z,18.70
2019-04-11T04:26:59.757Z,16.53
2019-04-11T04:29:29.317Z,12.97
2019-04-11T04:31:59.554Z,9.73
2019-04-11T04:34:28.547Z,13.43
2019-04-11T04:36:57.883Z,11.47
2019-04-11T04:39:27.286Z,13.10
2019-04-11T04:42:06.031Z,12.50
2019-04-11T04:44:27.283Z,16.53
2019-04-11T04:47:10.227Z,11.50
2019-04-11T04:49:25.883Z,15.03
2019-04-11T04:51:55.686Z,13.27
2019-04-11T04:54:24.579Z,12.50
2019-04-11T04:56:54.459Z,16.53
2019-04-11T04:59:23.738Z,9.70
2019-04-11T05:01:53.293Z,15.30
2019-04-11T05:04:23.483Z,16.43
2019-04-11T05:06:53.048Z,18.17
2019-04-11T05:09:23.537Z,12.90
2019-04-11T05:11:53.088Z,10.10
2019-04-11T05:14:23.174Z,9.27
2019-04-11T05:16:52.543Z,6.53
2019-04-11T05:19:22.209Z,12.77
2019-04-11T05:21:52.030Z,16.43
2019-04-11T05:24:20.832Z,9.10
2019-04-11T05:26:50.366Z,9.97
2019-04-11T05:29:19.541Z,9.93
2019-04-11T05:31:49.206Z,18.10
2019-04-11T05:34:18.281Z,10.13
2019-04-11T05:36:47.197Z,7.63
2019-04-11T05:39:18.441Z,9.33
2019-04-11T05:41:48.360Z,16.10
2019-04-11T05:44:16.951Z,11.10
2019-04-11T05:46:52.392Z,10.63
2019-04-11T05:49:23.269Z,9.23
2019-04-11T05:51:58.587Z,12.73
2019-04-11T05:54:28.112Z,5.67
2019-04-11T05:56:59.553Z,9.63
2019-04-11T05:59:29.230Z,10.47
2019-04-11T06:02:04.341Z,9.20
2019-04-11T06:04:34.404Z,7.73
2019-04-11T06:07:08.525Z,11.30
2019-04-11T06:09:41.496Z,7.13
2019-04-11T06:12:27.545Z,20.33
2019-04-11T06:15:06.598Z,5.43
2019-04-11T06:17:35.104Z,7.23
2019-04-11T06:20:25.109Z,10.93
2019-04-11T06:22:54.561Z,6.20
2019-04-11T06:25:43.178Z,7.80
2019-04-11T06:28:14.236Z,9.87
2019-04-11T06:31:01.041Z,8.87
2019-04-11T06:33:32.126Z,7.17
2019-04-11T06:36:11.822Z,7.00
2019-04-11T06:38:42.856Z,8.23
2019-04-11T06:41:18.777Z,6.97
2019-04-11T06:44:05.022Z,6.60
2019-04-11T06:46:48.795Z,12.60
2019-04-11T06:49:18.892Z,6.57
2019-04-11T06:51:48.986Z,6.03
2019-04-11T06:54:34.066Z,12.67
2019-04-11T06:57:04.163Z,10.53
2019-04-11T06:59:37.187Z,7.53
2019-04-11T07:02:16.412Z,6.50
2019-04-11T07:04:46.294Z,7.37
2019-04-11T07:07:15.249Z,7.97
2019-04-11T07:09:47.023Z,7.90
2019-04-11T07:12:30.676Z,6.43
2019-04-11T07:15:10.142Z,6.33
2019-04-11T07:17:56.762Z,7.30
2019-04-11T07:20:27.245Z,11.47
2019-04-11T07:23:13.857Z,7.23
2019-04-11T07:25:45.073Z,8.27
2019-04-11T07:28:25.237Z,5.33
2019-04-11T07:31:07.499Z,5.03
2019-04-11T07:33:54.021Z,5.70
2019-04-11T07:36:40.687Z,5.97
2019-04-11T07:39:12.694Z,5.80
2019-04-11T07:41:43.426Z,6.13
2019-04-11T07:44:17.591Z,5.73
2019-04-11T07:46:53.851Z,9.60
2019-04-11T07:49:35.117Z,7.30
2019-04-11T07:52:06.704Z,4.97
2019-04-11T07:54:36.936Z,6.97
2019-04-11T07:57:23.436Z,6.50
2019-04-11T08:00:12.731Z,6.53
2019-04-11T08:02:53.145Z,7.70
2019-04-11T08:05:26.442Z,6.90
2019-04-11T08:08:04.817Z,4.73
2019-04-11T08:10:35.150Z,7.70
2019-04-11T08:13:08.299Z,5.40
2019-04-11T08:15:55.754Z,8.17
2019-04-11T08:18:26.429Z,6.63
2019-04-11T08:21:12.758Z,9.00
2019-04-11T08:23:43.540Z,18.23
2019-04-11T08:26:26.242Z,9.47
2019-04-11T08:29:05.325Z,10.90
2019-04-11T08:31:32.850Z,6.10
2019-04-11T08:34:02.670Z,5.70
2019-04-11T08:36:42.085Z,7.47
2019-04-11T08:39:12.997Z,4.33
2019-04-11T08:41:47.562Z,13.50
2019-04-11T08:44:17.224Z,10.27
2019-04-11T08:46:47.588Z,6.43
2019-04-11T08:49:29.074Z,6.63
2019-04-11T08:51:58.624Z,11.97
2019-04-11T08:54:43.924Z,8.20
2019-04-11T08:57:13.678Z,8.60
2019-04-11T08:59:55.928Z,10.33
2019-04-11T09:02:24.778Z,9.27
2019-04-11T09:05:04.007Z,17.43
2019-04-11T09:07:27.574Z,5.93
2019-04-11T09:09:57.831Z,7.23
2019-04-11T09:12:26.748Z,6.50
2019-04-11T09:15:00.269Z,16.43
2019-04-11T09:17:30.432Z,9.03
2019-04-11T09:20:07.367Z,7.57
2019-04-11T09:22:37.683Z,6.33
2019-04-11T09:25:11.483Z,5.43
2019-04-11T09:27:49.059Z,8.60
2019-04-11T09:30:36.746Z,5.93
2019-04-11T09:33:20.666Z,5.77
2019-04-11T09:35:51.253Z,12.20
2019-04-11T09:38:22.190Z,9.33
2019-04-11T09:41:09.728Z,6.63
2019-04-11T09:43:40.120Z,8.67
2019-04-11T09:46:26.775Z,7.20
2019-04-11T09:49:13.604Z,7.83
2019-04-11T09:51:44.309Z,5.20
2019-04-11T09:54:33.933Z,10.13
2019-04-11T09:57:22.880Z,8.10
2019-04-11T10:00:08.179Z,6.07
2019-04-11T10:02:56.599Z,6.87
2019-04-11T10:05:29.968Z,8.80
2019-04-11T10:08:16.898Z,9.80
2019-04-11T10:10:47.070Z,12.23
2019-04-11T10:13:18.478Z,4.93
2019-04-11T10:15:57.768Z,5.80
2019-04-11T10:18:44.087Z,6.90
2019-04-11T10:21:15.210Z,5.90
2019-04-11T10:23:45.439Z,10.40
2019-04-11T10:26:13.953Z,7.93
2019-04-11T10:28:49.725Z,6.97
2019-04-11T10:31:18.285Z,8.90
2019-04-11T10:34:01.607Z,8.13
2019-04-11T10:36:32.184Z,7.87
2019-04-11T10:39:04.832Z,5.67
2019-04-11T10:41:34.960Z,9.83
2019-04-11T10:44:05.269Z,5.70
2019-04-11T10:46:47.484Z,5.63
2019-04-11T10:49:17.796Z,9.70
2019-04-11T10:51:49.724Z,5.27
2019-04-11T10:54:18.207Z,11.73
2019-04-11T10:57:00.216Z,6.77
2019-04-11T10:59:30.395Z,6.93
2019-04-11T11:02:00.600Z,6.90
2019-04-11T11:04:30.658Z,9.10
2019-04-11T11:07:02.233Z,6.77
2019-04-11T11:09:37.023Z,9.47
2019-04-11T11:12:08.461Z,5.60
2019-04-11T11:14:45.040Z,5.87
2019-04-11T11:17:43.965Z,8.37
2019-04-11T11:20:03.869Z,9.43
2019-04-11T11:22:41.910Z,7.10
2019-04-11T11:25:28.859Z,11.23
2019-04-11T11:27:57.933Z,7.30
2019-04-11T11:30:29.255Z,12.00
2019-04-11T11:32:58.191Z,6.87
2019-04-11T11:35:33.986Z,7.07
2019-04-11T11:38:03.910Z,5.93
2019-04-11T11:40:52.625Z,7.63
2019-04-11T11:43:23.143Z,10.90
2019-04-11T11:46:03.155Z,7.37
2019-04-11T11:48:48.753Z,7.30
2019-04-11T11:51:30.827Z,7.70
2019-04-11T11:54:07.174Z,7.60
2019-04-11T11:56:40.344Z,6.73
2019-04-11T11:59:11.690Z,6.40
2019-04-11T12:01:52.369Z,7.23
2019-04-11T12:04:35.307Z,11.20
2019-04-11T12:07:04.441Z,6.47
2019-04-11T12:09:38.414Z,9.50
2019-04-11T12:12:14.244Z,7.77
2019-04-11T12:14:45.340Z,7.40
2019-04-11T12:17:24.942Z,7.13
2019-04-11T12:20:03.958Z,6.37
2019-04-11T12:22:26.613Z,6.63
2019-04-11T12:25:12.390Z,5.67
2019-04-11T12:27:48.126Z,6.63
2019-04-11T12:30:35.724Z,11.43
2019-04-11T12:33:23.273Z,10.83
2019-04-11T12:36:05.606Z,7.50
2019-04-11T12:38:54.610Z,7.17
2019-04-11T12:41:26.975Z,6.20
2019-04-11T12:44:06.039Z,7.07
2019-04-11T12:46:52.725Z,9.50
2019-04-11T12:49:29.855Z,8.77
2019-04-11T12:52:15.782Z,7.93
2019-04-11T12:54:48.828Z,11.00
2019-04-11T12:57:35.153Z,7.60
2019-04-11T13:00:06.321Z,8.50
2019-04-11T13:02:52.408Z,11.70
2019-04-11T13:05:22.457Z,6.97
2019-04-11T13:08:08.803Z,8.83
2019-04-11T13:10:38.544Z,6.13
2019-04-11T13:13:27.079Z,8.33
2019-04-11T13:16:11.404Z,8.40
2019-04-11T13:18:50.808Z,6.60
2019-04-11T13:21:20.896Z,7.77
2019-04-11T13:23:57.073Z,6.07
2019-04-11T13:26:42.515Z,6.47
2019-04-11T13:29:21.167Z,8.20
2019-04-11T13:31:53.941Z,7.67
2019-04-11T13:34:24.083Z,9.90
2019-04-11T13:36:56.899Z,8.20
2019-04-11T13:39:25.543Z,9.97
2019-04-11T13:42:01.424Z,6.90
2019-04-11T13:44:29.837Z,7.43
2019-04-11T13:46:59.942Z,6.53
2019-04-11T13:49:32.676Z,10.40
2019-04-11T13:52:14.616Z,8.57
2019-04-11T13:55:02.790Z,11.20
2019-04-11T13:57:49.479Z,7.73
2019-04-11T14:00:36.114Z,7.00
2019-04-11T14:03:24.276Z,6.27
2019-04-11T14:05:52.689Z,6.20
2019-04-11T14:08:28.711Z,6.33
2019-04-11T14:10:59.724Z,11.23
2019-04-11T14:13:34.633Z,8.17
2019-04-11T14:16:21.833Z,7.93
2019-04-11T14:19:07.297Z,8.00
2019-04-11T14:21:35.910Z,8.07
2019-04-11T14:24:11.575Z,8.40
2019-04-11T14:26:41.503Z,9.70
2019-04-11T14:29:11.587Z,12.40
2019-04-11T14:31:41.730Z,10.20
2019-04-11T14:34:11.841Z,10.50
2019-04-11T14:36:53.909Z,12.27
2019-04-11T14:39:36.138Z,7.77
2019-04-11T14:42:22.929Z,10.90
2019-04-11T14:44:53.178Z,9.00
2019-04-11T14:47:39.296Z,10.20
2019-04-11T14:50:11.245Z,10.13
2019-04-11T14:52:58.030Z,9.33
2019-04-11T14:55:27.825Z,6.07
2019-04-11T14:58:14.160Z,7.30
2019-04-11T15:00:42.640Z,7.40
2019-04-11T15:03:28.668Z,8.43
2019-04-11T15:05:58.811Z,10.33
2019-04-11T15:08:29.847Z,10.37
2019-04-11T15:11:02.734Z,12.30
2019-04-11T15:13:32.912Z,11.10
2019-04-11T15:16:19.070Z,9.83
2019-04-11T15:18:49.134Z,8.77
2019-04-11T15:21:36.488Z,10.70
2019-04-11T15:24:07.431Z,7.70
2019-04-11T15:26:38.905Z,9.00
2019-04-11T15:29:09.070Z,11.23
2019-04-11T15:31:41.586Z,11.90
2019-04-11T15:34:14.626Z,10.00
2019-04-11T15:36:44.700Z,14.17
2019-04-11T15:39:17.691Z,12.10
2019-04-11T15:41:47.785Z,11.00
2019-04-11T15:44:35.849Z,7.97
2019-04-11T15:47:05.930Z,9.30
2019-04-11T15:49:46.605Z,9.40
2019-04-11T15:52:16.509Z,11.83
2019-04-11T15:55:02.510Z,10.03
2019-04-11T15:57:35.607Z,8.07
2019-04-11T16:00:14.311Z,11.47
2019-04-11T16:02:53.182Z,7.67
2019-04-11T16:05:39.864Z,11.03
2019-04-11T16:08:28.349Z,11.43
2019-04-11T16:11:04.329Z,6.80
2019-04-11T16:13:34.523Z,7.10
2019-04-11T16:16:11.305Z,11.30
2019-04-11T16:18:48.554Z,9.30
2019-04-11T16:21:21.185Z,8.00
2019-04-11T16:23:54.708Z,7.63
2019-04-11T16:26:41.003Z,9.70
2019-04-11T16:29:22.979Z,7.93
2019-04-11T16:31:53.221Z,8.77
2019-04-11T16:34:48.404Z,11.70
2019-04-11T16:37:10.236Z,8.23
2019-04-11T16:39:57.010Z,7.93
2019-04-11T16:42:27.071Z,7.57
2019-04-11T16:45:08.944Z,7.93
2019-04-11T16:47:48.015Z,9.40
2019-04-11T16:50:16.447Z,6.57
2019-04-11T16:52:44.871Z,7.10
2019-04-11T16:55:13.332Z,5.73
2019-04-11T16:57:44.222Z,7.73
2019-04-11T17:00:12.787Z,6.20
2019-04-11T17:02:41.224Z,8.50
2019-04-11T17:05:09.876Z,5.63
2019-04-11T17:07:42.940Z,10.77
2019-04-11T17:10:13.274Z,11.03
2019-04-11T17:12:41.732Z,9.77
2019-04-11T17:15:10.295Z,5.53
2019-04-11T17:17:39.128Z,7.07
2019-04-11T17:20:07.865Z,7.47
2019-04-11T17:22:36.299Z,9.43
2019-04-11T17:25:05.864Z,7.67
2019-04-11T17:27:34.311Z,7.13
2019-04-11T17:30:02.792Z,4.77
2019-04-11T17:32:31.326Z,8.70
2019-04-11T17:35:01.901Z,6.80
2019-04-11T17:37:30.927Z,7.10
2019-04-11T17:40:00.184Z,4.07
2019-04-11T17:42:28.600Z,7.23
2019-04-11T17:44:57.027Z,11.13
2019-04-11T17:47:26.966Z,11.53
2019-04-11T17:49:55.596Z,9.13
2019-04-11T17:52:24.014Z,5.27
2019-04-11T17:54:54.201Z,5.63
2019-04-11T17:57:22.575Z,5.57
2019-04-11T17:59:51.000Z,7.03
2019-04-11T18:02:19.499Z,5.20
2019-04-11T18:04:48.098Z,5.90
2019-04-11T18:07:17.585Z,5.93
2019-04-11T18:09:46.698Z,3.90
2019-04-11T18:12:15.243Z,6.53
2019-04-11T18:14:43.776Z,6.13
2019-04-11T18:17:12.239Z,9.70
2019-04-11T18:19:40.660Z,5.20
2019-04-11T18:22:13.278Z,5.67
2019-04-11T18:24:39.581Z,7.30
2019-04-11T18:27:08.019Z,7.40
2019-04-11T18:29:36.452Z,3.83
2019-04-11T18:32:05.339Z,5.10
2019-04-11T18:34:33.757Z,4.83
2019-04-11T18:37:02.726Z,5.93
2019-04-11T18:39:31.160Z,7.20
2019-04-11T18:41:59.690Z,7.73
2019-04-11T18:44:28.158Z,3.97
2019-04-11T18:46:56.575Z,6.80
2019-04-11T18:49:25.295Z,6.57
2019-04-11T18:51:53.822Z,6.30
2019-04-11T18:54:22.231Z,7.00
2019-04-11T18:56:50.676Z,12.87
2019-04-11T18:59:19.090Z,5.00
2019-04-11T19:01:47.520Z,6.43
2019-04-11T19:04:16.842Z,6.10
2019-04-11T19:06:45.235Z,5.47
2019-04-11T19:09:14.771Z,9.30
2019-04-11T19:11:43.895Z,4.60
2019-04-11T19:14:15.809Z,7.00
2019-04-11T19:16:45.757Z,7.30
2019-04-11T19:19:18.001Z,10.70
2019-04-11T19:21:44.020Z,13.00
2019-04-11T19:24:13.045Z,7.17
2019-04-11T19:26:45.837Z,5.67
2019-04-11T19:29:11.805Z,12.03
2019-04-11T19:31:41.124Z,10.90
2019-04-11T19:34:09.746Z,7.53
2019-04-11T19:36:39.860Z,9.20
2019-04-11T19:39:13.599Z,8.10
2019-04-11T19:41:38.941Z,6.97
2019-04-11T19:44:07.491Z,4.83
2019-04-11T19:46:35.984Z,9.13
2019-04-11T19:49:04.394Z,6.10
2019-04-11T19:51:32.863Z,7.90
2019-04-11T19:54:03.228Z,6.23
2019-04-11T19:56:49.651Z,8.53
2019-04-11T19:59:18.066Z,5.20
2019-04-11T20:01:46.476Z,5.53
2019-04-11T20:04:14.906Z,6.03
2019-04-11T20:06:43.305Z,9.53
2019-04-11T20:09:11.983Z,9.00
2019-04-11T20:11:40.389Z,7.37
2019-04-11T20:14:08.860Z,6.43
2019-04-11T20:16:41.960Z,4.13
2019-04-11T20:19:08.375Z,9.63
2019-04-11T20:21:38.478Z,9.03
2019-04-11T20:24:07.635Z,8.57
2019-04-11T20:26:36.078Z,5.53
2019-04-11T20:29:04.514Z,7.43
2019-04-11T20:31:32.936Z,5.63
2019-04-11T20:34:01.683Z,10.73
2019-04-11T20:36:33.528Z,11.90
2019-04-11T20:39:02.323Z,10.93
2019-04-11T20:41:30.728Z,7.20
2019-04-11T20:43:59.325Z,7.13
2019-04-11T20:46:29.203Z,4.77
2019-04-11T20:48:58.502Z,4.30
2019-04-11T20:51:27.378Z,7.10
2019-04-11T20:53:56.147Z,7.50
2019-04-11T20:56:24.747Z,5.80
2019-04-11T20:58:53.159Z,7.47
2019-04-11T21:01:23.826Z,5.03
2019-04-11T21:03:51.794Z,8.50
2019-04-11T21:06:20.337Z,5.00
2019-04-11T21:08:48.974Z,7.37
2019-04-11T21:11:18.818Z,6.87
2019-04-11T21:13:47.592Z,7.60
2019-04-11T21:16:16.035Z,6.37
2019-04-11T21:18:44.479Z,9.93
2019-04-11T21:21:12.950Z,6.70
2019-04-11T21:23:41.552Z,7.50
2019-04-11T21:26:10.380Z,8.13
2019-04-11T21:28:39.193Z,4.30
2019-04-11T21:31:07.767Z,8.17
2019-04-11T21:33:36.258Z,5.33
2019-04-11T21:36:04.738Z,3.57
2019-04-11T21:38:33.145Z,7.60
2019-04-11T21:41:05.968Z,5.07
2019-04-11T21:43:35.929Z,5.30
2019-04-11T21:46:04.078Z,7.70
2019-04-11T21:48:35.777Z,6.10
2019-04-11T21:51:02.208Z,7.60
2019-04-11T21:53:36.513Z,5.70
2019-04-11T21:56:01.321Z,5.10
2019-04-11T21:58:30.166Z,10.60
2019-04-11T22:01:01.898Z,7.77
2019-04-11T22:03:31.052Z,7.13
2019-04-11T22:06:00.526Z,7.37
2019-04-11T22:08:29.411Z,6.97
2019-04-11T22:10:58.001Z,4.67
2019-04-11T22:13:26.416Z,5.67
2019-04-11T22:15:54.831Z,6.70
2019-04-11T22:18:23.233Z,6.57
2019-04-11T22:20:51.801Z,5.30
2019-04-11T22:23:20.276Z,9.90
2019-04-11T22:25:48.694Z,5.17
2019-04-11T22:28:17.130Z,6.87
2019-04-11T22:30:46.225Z,5.93
2019-04-11T22:33:28.324Z,6.07
2019-04-11T22:35:56.980Z,7.23
2019-04-11T22:38:30.727Z,7.10
2019-04-11T22:40:57.128Z,7.77
2019-04-11T22:43:25.553Z,20.37
2019-04-11T22:45:53.979Z,5.17
2019-04-11T22:48:22.400Z,3.20
2019-04-11T22:50:50.829Z,5.47
2019-04-11T22:53:19.290Z,8.10
2019-04-11T22:55:47.714Z,4.80
2019-04-11T22:58:16.152Z,10.00
2019-04-11T23:00:45.810Z,7.70
2019-04-11T23:03:21.949Z,8.00
2019-04-11T23:05:50.369Z,8.03
2019-04-11T23:08:19.821Z,8.40
2019-04-11T23:10:48.372Z,5.73
2019-04-11T23:13:16.796Z,5.73
2019-04-11T23:15:45.251Z,10.90
2019-04-11T23:18:14.037Z,5.57
2019-04-11T23:20:44.244Z,6.10
2019-04-11T23:23:13.568Z,3.33
2019-04-11T23:25:42.679Z,10.73
2019-04-11T23:28:11.106Z,5.07
2019-04-11T23:30:41.726Z,5.60
2019-04-11T23:33:10.164Z,7.27
2019-04-11T23:35:38.565Z,5.03
2019-04-11T23:38:06.977Z,3.33
2019-04-11T23:40:35.401Z,5.20
2019-04-11T23:43:03.840Z,6.93
2019-04-11T23:45:32.932Z,3.53
2019-04-11T23:48:01.352Z,6.93
2019-04-11T23:50:29.766Z,8.67
2019-04-11T23:52:58.217Z,6.80
2019-04-11T23:55:29.947Z,7.03
2019-04-11T23:58:01.150Z,4.53
